Baucum, Arkansas
Current Conditions -  °F | °C
As of 1:53 AM on Saturday 25 Oct 2014 (Local Time) from KLIT Reporting Station
Clear Clear  
Wind Chill: 60°   Ceiling: Unl
Heat Index: 60°   Visibility: 10mi
Dew Point: 54°   Wind: 6mph
Humidity: 80%   Direction: 250°WSW
Pressure: 30.1"   Gusts: NA
Location:  34.757°N, 92.1411°W
Report Text: KLIT 250653Z 25005KT 10SM CLR 16/12 A3010 RMK AO2 SLP192 T01560122
Loading
Personal Weather Stations






























Interactive Weather Map
Tropical Storm Tracking
New forecast layout! Learn more

10-Day Weather Forecast

Advertisements
Track Severe Weather on mobile